createdAt,value
2024-03-16T00:00:28.867Z,36.10
2024-03-16T00:03:16.920Z,35.30
2024-03-16T00:05:45.197Z,35.10
2024-03-16T00:08:13.173Z,34.70
2024-03-16T00:10:41.046Z,35.20
2024-03-16T00:13:09.070Z,34.80
2024-03-16T00:15:37.064Z,35.50
2024-03-16T00:18:05.365Z,35.80
2024-03-16T00:20:33.422Z,35.40
2024-03-16T00:23:02.321Z,34.30
2024-03-16T00:25:30.277Z,37.20
2024-03-16T00:27:58.518Z,34.10
2024-03-16T00:30:26.993Z,32.90
2024-03-16T00:32:55.829Z,34.30
2024-03-16T00:35:24.092Z,30.90
2024-03-16T00:37:52.201Z,33.00
2024-03-16T00:40:21.129Z,30.70
2024-03-16T00:42:49.371Z,29.00
2024-03-16T00:45:17.403Z,28.00
2024-03-16T00:47:45.561Z,25.70
2024-03-16T00:50:15.833Z,26.80
2024-03-16T00:52:43.966Z,27.60
2024-03-16T00:55:12.291Z,28.20
2024-03-16T00:57:40.709Z,27.70
2024-03-16T01:00:10.806Z,27.00
2024-03-16T01:02:40.555Z,27.00
2024-03-16T01:05:08.958Z,26.10
2024-03-16T01:07:37.573Z,27.60
2024-03-16T01:10:06.650Z,27.70
2024-03-16T01:12:34.977Z,27.20
2024-03-16T01:15:03.128Z,27.80
2024-03-16T01:17:31.075Z,28.40
2024-03-16T01:19:59.407Z,29.30
2024-03-16T01:22:27.484Z,29.20
2024-03-16T01:24:55.513Z,29.20
2024-03-16T01:27:23.435Z,31.70
2024-03-16T01:29:51.328Z,34.30
2024-03-16T01:32:19.459Z,34.80
2024-03-16T01:34:47.598Z,35.00
2024-03-16T01:37:15.690Z,33.40
2024-03-16T01:39:45.566Z,32.60
2024-03-16T01:42:14.412Z,32.70
2024-03-16T01:45:11.883Z,32.90
2024-03-16T01:47:40.035Z,32.80
2024-03-16T01:50:10.329Z,35.60
2024-03-16T01:52:38.472Z,36.10
2024-03-16T01:55:06.904Z,37.20
2024-03-16T01:57:35.453Z,34.00
2024-03-16T02:00:04.668Z,35.20
2024-03-16T02:02:38.214Z,33.00
2024-03-16T02:05:07.405Z,36.30
2024-03-16T02:07:40.094Z,33.00
2024-03-16T02:10:11.484Z,33.50
2024-03-16T02:12:39.975Z,33.30
2024-03-16T02:15:08.690Z,31.50
2024-03-16T02:17:37.886Z,32.70
2024-03-16T02:20:10.725Z,31.90
2024-03-16T02:22:38.733Z,33.70
2024-03-16T02:25:08.244Z,33.30
2024-03-16T02:27:36.754Z,34.80
2024-03-16T02:30:06.874Z,34.00
2024-03-16T02:32:35.154Z,32.40
2024-03-16T02:35:03.599Z,32.20
2024-03-16T02:37:31.577Z,33.10
2024-03-16T02:39:59.800Z,32.60
2024-03-16T02:42:28.691Z,32.50
2024-03-16T02:44:56.712Z,31.20
2024-03-16T02:47:25.618Z,33.90
2024-03-16T02:49:53.823Z,32.20
2024-03-16T02:52:21.737Z,30.80
2024-03-16T02:54:49.992Z,31.20
2024-03-16T02:57:18.021Z,33.00
2024-03-16T02:59:46.444Z,34.00
2024-03-16T03:02:15.558Z,32.40
2024-03-16T03:04:43.633Z,30.10
2024-03-16T03:07:11.822Z,36.00
2024-03-16T03:09:39.859Z,33.10
2024-03-16T03:12:08.561Z,33.70
2024-03-16T03:14:36.675Z,31.30
2024-03-16T03:17:04.718Z,33.60
2024-03-16T03:19:32.618Z,32.20
2024-03-16T03:22:00.711Z,31.10
2024-03-16T03:24:28.788Z,31.70
2024-03-16T03:26:57.096Z,32.00
2024-03-16T03:29:25.077Z,37.50
2024-03-16T03:31:53.259Z,34.70
2024-03-16T03:34:21.702Z,35.50
2024-03-16T03:36:50.447Z,33.90
2024-03-16T03:39:19.119Z,33.20
2024-03-16T03:41:47.579Z,32.90
2024-03-16T03:44:37.681Z,29.70
2024-03-16T03:47:05.815Z,27.80
2024-03-16T03:49:36.647Z,28.10
2024-03-16T03:52:06.105Z,28.60
2024-03-16T03:54:36.021Z,28.70
2024-03-16T03:57:05.428Z,28.30
2024-03-16T03:59:33.992Z,29.00
2024-03-16T04:02:02.189Z,31.30
2024-03-16T04:04:30.329Z,32.10
2024-03-16T04:06:58.386Z,31.40
2024-03-16T04:09:26.456Z,30.80
2024-03-16T04:11:54.539Z,29.50
2024-03-16T04:14:22.812Z,30.80
2024-03-16T04:16:50.902Z,30.50
2024-03-16T04:19:18.804Z,31.00
2024-03-16T04:21:51.394Z,30.00
2024-03-16T04:24:19.974Z,28.70
2024-03-16T04:26:47.877Z,30.40
2024-03-16T04:29:16.473Z,33.20
2024-03-16T04:31:44.409Z,31.00
2024-03-16T04:34:13.126Z,32.80
2024-03-16T04:36:42.032Z,32.40
2024-03-16T04:39:10.387Z,32.60
2024-03-16T04:41:38.457Z,32.30
2024-03-16T04:44:06.330Z,32.00
2024-03-16T04:46:34.811Z,33.90
2024-03-16T04:49:03.298Z,33.30
2024-03-16T04:51:31.835Z,33.70
2024-03-16T04:54:02.373Z,34.00
2024-03-16T04:56:30.465Z,35.00
2024-03-16T04:58:58.321Z,33.50
2024-03-16T05:01:27.309Z,39.10
2024-03-16T05:03:55.218Z,36.40
2024-03-16T05:06:23.371Z,35.70
2024-03-16T05:08:52.463Z,36.60
2024-03-16T05:11:20.604Z,36.30
2024-03-16T05:13:48.903Z,37.40
2024-03-16T05:16:17.132Z,38.30
2024-03-16T05:18:45.292Z,38.70
2024-03-16T05:21:13.715Z,35.00
2024-03-16T05:23:42.207Z,39.70
2024-03-16T05:26:10.097Z,43.60
2024-03-16T05:28:38.074Z,46.30
2024-03-16T05:31:06.760Z,46.10
2024-03-16T05:33:35.438Z,48.90
2024-03-16T05:36:06.498Z,44.70
2024-03-16T05:38:34.354Z,51.00
2024-03-16T05:41:02.315Z,61.40
2024-03-16T05:43:30.361Z,113.00
2024-03-16T05:45:58.443Z,89.80
2024-03-16T05:48:26.650Z,62.70
2024-03-16T05:50:54.912Z,54.10
2024-03-16T05:53:25.061Z,55.10
2024-03-16T05:55:53.076Z,56.70
2024-03-16T05:58:24.011Z,54.20
2024-03-16T06:00:52.084Z,49.30
2024-03-16T06:03:20.164Z,46.10
2024-03-16T06:05:48.333Z,45.20
2024-03-16T06:08:16.411Z,45.90
2024-03-16T06:10:45.310Z,46.00
2024-03-16T06:13:14.451Z,49.00
2024-03-16T06:15:42.475Z,46.90
2024-03-16T06:18:10.946Z,46.40
2024-03-16T06:20:39.241Z,45.50
2024-03-16T06:23:07.811Z,45.30
2024-03-16T06:25:48.450Z,47.90
2024-03-16T06:28:23.149Z,48.80
2024-03-16T06:30:56.947Z,38.20
2024-03-16T06:33:34.323Z,42.50
2024-03-16T06:36:02.526Z,43.00
2024-03-16T06:38:30.895Z,33.30
2024-03-16T06:40:59.047Z,30.40
2024-03-16T06:43:27.311Z,31.70
2024-03-16T06:45:55.179Z,36.90
2024-03-16T06:48:23.850Z,35.80
2024-03-16T06:50:53.062Z,31.50
2024-03-16T06:53:21.211Z,30.80
2024-03-16T06:55:52.624Z,34.40
2024-03-16T07:00:51.982Z,32.80
2024-03-16T07:03:20.489Z,29.90
2024-03-16T07:05:48.737Z,29.20
2024-03-16T07:08:18.650Z,28.90
2024-03-16T07:10:47.049Z,24.20
2024-03-16T07:13:15.245Z,26.40
2024-03-16T07:15:45.375Z,23.00
2024-03-16T07:18:13.549Z,19.00
2024-03-16T07:20:42.662Z,21.50
2024-03-16T07:23:10.760Z,23.00
2024-03-16T07:25:38.820Z,23.10
2024-03-16T07:28:09.208Z,22.80
2024-03-16T07:30:37.823Z,21.50
2024-03-16T07:33:06.037Z,21.30
2024-03-16T07:35:36.229Z,19.40
2024-03-16T07:38:05.939Z,20.80
2024-03-16T07:40:34.053Z,19.40
2024-03-16T07:43:03.078Z,18.90
2024-03-16T07:45:31.663Z,16.80
2024-03-16T07:47:59.879Z,17.80
2024-03-16T07:50:27.835Z,15.10
2024-03-16T07:52:55.805Z,16.30
2024-03-16T07:55:23.795Z,16.80
2024-03-16T07:57:52.171Z,17.30
2024-03-16T08:00:20.441Z,10.90
2024-03-16T08:02:48.473Z,10.30
2024-03-16T08:05:16.411Z,10.20
2024-03-16T08:07:45.609Z,13.90
2024-03-16T08:10:13.965Z,12.10
2024-03-16T08:12:42.878Z,11.70
2024-03-16T08:15:11.938Z,13.50
2024-03-16T08:17:39.946Z,12.30
2024-03-16T08:20:09.639Z,11.80
2024-03-16T08:22:37.660Z,13.90
2024-03-16T08:25:07.413Z,13.90
2024-03-16T08:27:37.836Z,13.00
2024-03-16T08:30:06.628Z,12.20
2024-03-16T08:32:34.818Z,12.60
2024-03-16T08:35:04.886Z,13.30
2024-03-16T08:37:33.321Z,13.60
2024-03-16T08:40:01.685Z,13.50
2024-03-16T08:42:30.544Z,13.80
2024-03-16T08:44:58.554Z,12.80
2024-03-16T08:47:26.899Z,13.40
2024-03-16T08:49:55.092Z,16.40
2024-03-16T08:52:25.504Z,13.80
2024-03-16T08:54:57.094Z,14.40
2024-03-16T08:57:25.937Z,14.40
2024-03-16T08:59:54.435Z,12.00
2024-03-16T09:02:25.439Z,12.20
2024-03-16T09:04:53.736Z,11.30
2024-03-16T09:07:21.727Z,10.80
2024-03-16T09:09:50.241Z,12.10
2024-03-16T09:12:18.437Z,14.90
2024-03-16T09:14:46.439Z,11.90
2024-03-16T09:17:14.336Z,11.20
2024-03-16T09:19:42.289Z,11.50
2024-03-16T09:22:10.557Z,11.60
2024-03-16T09:24:38.732Z,13.50
2024-03-16T09:27:06.736Z,12.80
2024-03-16T09:29:34.756Z,10.80
2024-03-16T09:32:02.800Z,14.50
2024-03-16T09:34:30.991Z,12.10
2024-03-16T09:36:58.994Z,13.70
2024-03-16T09:39:28.408Z,13.80
2024-03-16T09:41:58.531Z,12.00
2024-03-16T09:44:27.213Z,11.30
2024-03-16T09:46:56.364Z,11.40
2024-03-16T09:49:25.363Z,11.40
2024-03-16T09:51:55.005Z,10.90
2024-03-16T09:54:23.466Z,11.50
2024-03-16T09:56:51.622Z,11.40
2024-03-16T09:59:29.772Z,13.00
2024-03-16T10:02:01.376Z,12.60
2024-03-16T10:04:29.362Z,12.80
2024-03-16T10:06:57.611Z,13.80
2024-03-16T10:09:26.746Z,12.20
2024-03-16T10:11:56.121Z,12.60
2024-03-16T10:14:24.365Z,12.80
2024-03-16T10:16:52.280Z,13.10
2024-03-16T10:19:25.081Z,12.90
2024-03-16T10:21:54.839Z,13.60
2024-03-16T10:24:24.056Z,14.90
2024-03-16T10:26:52.126Z,15.00
2024-03-16T10:29:22.363Z,13.10
2024-03-16T10:31:55.001Z,12.50
2024-03-16T10:34:24.224Z,12.10
2024-03-16T10:36:53.182Z,12.30
2024-03-16T10:39:23.730Z,11.30
2024-03-16T10:41:53.981Z,12.30
2024-03-16T10:44:23.065Z,12.50
2024-03-16T10:46:51.337Z,12.00
2024-03-16T10:49:19.410Z,12.60
2024-03-16T10:51:47.481Z,12.50
2024-03-16T10:54:16.005Z,13.40
2024-03-16T10:56:46.140Z,11.60
2024-03-16T10:59:32.593Z,12.00
2024-03-16T11:02:02.157Z,11.60
2024-03-16T11:04:31.801Z,11.40
2024-03-16T11:06:59.865Z,11.40
2024-03-16T11:09:34.112Z,10.30
2024-03-16T11:12:03.207Z,11.00
2024-03-16T11:14:32.689Z,9.60
2024-03-16T11:17:01.157Z,9.60
2024-03-16T11:19:29.117Z,9.30
2024-03-16T11:22:01.385Z,12.30
2024-03-16T11:24:29.887Z,10.60
2024-03-16T11:26:57.857Z,11.10
2024-03-16T11:29:28.873Z,11.30
2024-03-16T11:31:58.090Z,11.40
2024-03-16T11:34:27.046Z,11.80
2024-03-16T11:36:56.318Z,10.90
2024-03-16T11:39:25.830Z,12.70
2024-03-16T11:42:04.880Z,10.30
2024-03-16T11:44:37.202Z,9.30
2024-03-16T11:47:06.386Z,8.80
2024-03-16T11:49:35.953Z,7.30
2024-03-16T11:52:05.915Z,8.80
2024-03-16T11:54:34.317Z,7.90
2024-03-16T11:57:02.365Z,7.80
2024-03-16T11:59:30.444Z,6.70
2024-03-16T12:01:59.325Z,7.70
2024-03-16T12:04:29.650Z,8.60
2024-03-16T12:07:00.586Z,10.60
2024-03-16T12:09:36.937Z,8.80
2024-03-16T12:12:09.025Z,8.50
2024-03-16T12:14:43.128Z,7.50
2024-03-16T12:17:12.633Z,7.00
2024-03-16T12:19:40.912Z,8.40
2024-03-16T12:22:16.198Z,7.40
2024-03-16T12:24:44.729Z,8.10
2024-03-16T12:27:13.631Z,7.70
2024-03-16T12:29:44.764Z,7.70
2024-03-16T12:32:13.040Z,6.70
2024-03-16T12:34:41.214Z,7.30
2024-03-16T12:37:09.316Z,7.40
2024-03-16T12:39:38.101Z,6.20
2024-03-16T12:42:07.431Z,5.50
2024-03-16T12:44:35.545Z,6.80
2024-03-16T12:47:03.786Z,5.60
2024-03-16T12:49:31.671Z,7.20
2024-03-16T12:51:59.759Z,6.20
2024-03-16T12:54:28.248Z,6.80
2024-03-16T12:56:56.534Z,6.80
2024-03-16T12:59:25.634Z,6.60
2024-03-16T13:01:53.584Z,6.80
2024-03-16T13:04:21.447Z,6.40
2024-03-16T13:06:49.422Z,6.50
2024-03-16T13:09:17.413Z,6.40
2024-03-16T13:11:45.564Z,5.80
2024-03-16T13:14:14.151Z,5.20
2024-03-16T13:16:42.136Z,7.00
2024-03-16T13:19:13.251Z,8.10
2024-03-16T13:21:41.985Z,6.50
2024-03-16T13:24:10.056Z,7.90
2024-03-16T13:26:38.246Z,6.40
2024-03-16T13:29:07.316Z,6.00
2024-03-16T13:31:35.560Z,6.30
2024-03-16T13:34:04.573Z,7.80
2024-03-16T13:36:32.621Z,7.80
2024-03-16T13:39:00.886Z,6.70
2024-03-16T13:41:28.778Z,6.50
2024-03-16T13:43:56.868Z,6.00
2024-03-16T13:46:25.519Z,7.30
2024-03-16T13:49:01.627Z,6.20
2024-03-16T13:51:33.776Z,5.70
2024-03-16T13:54:02.273Z,5.80
2024-03-16T13:56:33.878Z,5.70
2024-03-16T13:59:03.097Z,6.40
2024-03-16T14:01:31.241Z,5.30
2024-03-16T14:04:00.254Z,5.90
2024-03-16T14:06:29.244Z,5.50
2024-03-16T14:08:57.439Z,6.00
2024-03-16T14:11:26.069Z,4.80
2024-03-16T14:13:57.087Z,5.50
2024-03-16T14:18:53.315Z,4.50
2024-03-16T14:21:21.305Z,5.20
2024-03-16T14:23:49.413Z,5.80
2024-03-16T14:26:17.904Z,5.40
2024-03-16T14:28:46.655Z,6.00
2024-03-16T14:31:15.573Z,4.90
2024-03-16T14:33:43.798Z,4.90
2024-03-16T14:36:14.736Z,5.00
2024-03-16T14:38:43.372Z,4.30
2024-03-16T14:41:11.667Z,4.70
2024-03-16T14:43:39.723Z,4.70
2024-03-16T14:46:07.752Z,4.80
2024-03-16T14:48:36.440Z,6.40
2024-03-16T14:51:04.988Z,5.30
2024-03-16T14:53:33.346Z,5.90
2024-03-16T14:56:01.728Z,6.10
2024-03-16T14:58:29.609Z,6.60
2024-03-16T15:00:58.071Z,6.60
2024-03-16T15:03:26.244Z,5.30
2024-03-16T15:05:54.556Z,4.60
2024-03-16T15:08:23.241Z,5.80
2024-03-16T15:10:51.144Z,6.80
2024-03-16T15:13:19.748Z,6.00
2024-03-16T15:15:47.692Z,5.50
2024-03-16T15:18:15.887Z,5.80
2024-03-16T15:20:43.767Z,5.60
2024-03-16T15:23:12.272Z,4.80
2024-03-16T15:26:00.216Z,5.30
2024-03-16T15:28:34.715Z,5.20
2024-03-16T15:31:02.769Z,5.30
2024-03-16T15:33:32.338Z,6.20
2024-03-16T15:36:00.650Z,5.50
2024-03-16T15:38:28.733Z,5.30
2024-03-16T15:40:56.969Z,5.60
2024-03-16T15:43:25.467Z,5.50
2024-03-16T15:45:53.468Z,6.90
2024-03-16T15:48:22.272Z,7.50
2024-03-16T15:50:50.444Z,8.10
2024-03-16T15:53:18.487Z,8.90
2024-03-16T15:55:48.533Z,10.20
2024-03-16T15:58:18.431Z,9.50
2024-03-16T16:00:47.067Z,9.60
2024-03-16T16:03:15.173Z,9.50
2024-03-16T16:05:43.219Z,9.00
2024-03-16T16:08:11.655Z,11.70
2024-03-16T16:10:41.682Z,11.70
2024-03-16T16:13:13.152Z,13.00
2024-03-16T16:15:41.374Z,20.00
2024-03-16T16:18:09.331Z,14.60
2024-03-16T16:20:37.304Z,15.40
2024-03-16T16:23:08.145Z,18.10
2024-03-16T16:25:36.401Z,19.70
2024-03-16T16:28:09.681Z,24.70
2024-03-16T16:30:37.947Z,27.10
2024-03-16T16:33:09.062Z,26.50
2024-03-16T16:35:40.218Z,35.10
2024-03-16T16:38:08.248Z,38.90
2024-03-16T16:40:36.995Z,36.10
2024-03-16T16:43:05.932Z,33.20
2024-03-16T16:45:33.980Z,30.00
2024-03-16T16:48:02.158Z,32.50
2024-03-16T16:50:30.406Z,36.60
2024-03-16T16:52:58.289Z,38.90
2024-03-16T16:55:26.255Z,42.10
2024-03-16T16:57:54.341Z,39.30
2024-03-16T17:00:24.544Z,42.90
2024-03-16T17:02:52.870Z,47.50
2024-03-16T17:05:20.703Z,49.20
2024-03-16T17:07:48.683Z,43.40
